Shtandart — UAEM — position and weather

sailwx.info

Track history (hours):
 
Tides and Currents Weather Stations Pressure Air Temp Water Temp Dewpoint Dewpoint Depression Visibility Wind Speed Wind Dir Waves Ship Positions

Shtandart

Re-creation of early 1700's Russian naval frigate.

Last reported at 2017-Dec-16 01:28 UTC. Time now 2017-Dec-16 01:51 UTC.
Position N 39°34' E 002°38'.

Length 34 m; draft 3 m.

Type: Sailing vessel. MMSI: 273452840.

Date/timePositionNaut miles runAvg speedWind from/ knotsBaromVisibWave heightAir tempDewpointWater temp
2017-Dec-16 01:28N 39°34' E 002°38'0 0.0
2017-Dec-16 00:58N 39°34' E 002°38'0 0.0
2017-Dec-16 00:28N 39°34' E 002°38'0 0.0
2017-Dec-15 23:58N 39°34' E 002°38'0 0.0
2017-Dec-15 23:28N 39°34' E 002°38'0 0.0
2017-Dec-15 22:58N 39°34' E 002°38'0 0.0
2017-Dec-15 22:28N 39°34' E 002°38'0 0.0
2017-Dec-15 21:58N 39°34' E 002°38'0 0.0
2017-Dec-15 21:28N 39°34' E 002°38'0 0.0
2017-Dec-15 20:58N 39°34' E 002°38'0 0.0
2017-Dec-15 20:28N 39°34' E 002°38'0 0.0
2017-Dec-15 19:55N 39°34' E 002°38'0 0.0
2017-Dec-15 19:28N 39°34' E 002°38'0 0.0
2017-Dec-15 18:58N 39°34' E 002°38'0 0.0
2017-Dec-15 18:28N 39°34' E 002°38'0 0.0
2017-Dec-15 17:58N 39°34' E 002°38'0 0.0
2017-Dec-15 17:28N 39°34' E 002°38'0 0.0
2017-Dec-15 16:58N 39°34' E 002°38'0 0.0
2017-Dec-15 16:28N 39°34' E 002°38'0 0.0
2017-Dec-15 15:58N 39°34' E 002°38'0 0.0
2017-Dec-15 15:25N 39°34' E 002°38'0 0.0
2017-Dec-15 14:58N 39°34' E 002°38'0 0.0
2017-Dec-15 14:28N 39°34' E 002°38'0 0.0
2017-Dec-15 14:00N 39°34' E 002°38'1 2.7
2017-Dec-15 13:30N 39°33' E 002°39'2 3.8
2017-Dec-15 13:00N 39°31' E 002°38'2 4.0
2017-Dec-15 12:30N 39°30' E 002°36'3 5.5
2017-Dec-15 12:00N 39°28' E 002°33'2 3.3
2017-Dec-15 11:30N 39°27' E 002°32'4 7.5
2017-Dec-15 11:00N 39°27' E 002°27'44 6.9
2017-Dec-15 04:38N 38°58' E 001°43'3 8.3
2017-Dec-15 04:18N 38°56' E 001°41'2 7.1
2017-Dec-15 04:00N 38°56' E 001°38'8 5.3
2017-Dec-15 02:30N 38°54' E 001°28'2 1.1
2017-Dec-15 00:59N 38°55' E 001°27'0 0.0
2017-Dec-15 00:23N 38°55' E 001°27'0 0.0
2017-Dec-14 17:11N 38°55' E 001°27'1 0.0
2017-Dec-13 23:54N 38°54' E 001°27'111 3.0
2017-Dec-12 10:32N 37°43' W 000°22'0 6.4
2017-Dec-12 10:27N 37°43' W 000°23'3 5.5
2017-Dec-12 09:57N 37°40' W 000°25'3 5.7
2017-Dec-12 09:26N 37°38' W 000°27'14 6.4
2017-Dec-12 07:15N 37°30' W 000°41'2 6.7
2017-Dec-12 06:59N 37°29' W 000°43'3 6.0
2017-Dec-12 06:30N 37°28' W 000°46'4 6.1
2017-Dec-12 05:53N 37°26' W 000°50'3 6.1
2017-Dec-12 05:27N 37°25' W 000°53'5 5.9
2017-Dec-12 04:37N 37°23' W 000°59'  
Track history (hours):
 
Tides and Currents Weather Stations Pressure Air Temp Water Temp Dewpoint Dewpoint Depression Visibility Wind Speed Wind Dir Waves Ship Positions

Shtandart

Re-creation of early 1700's Russian naval frigate.

Last reported at 2017-Dec-16 01:28 UTC. Time now 2017-Dec-16 01:51 UTC.
Position N 39°34' E 002°38'.

Length 34 m; draft 3 m.

Type: Sailing vessel. MMSI: 273452840.

Date/timePositionNaut miles runAvg speedWind from/ knotsBaromVisibWave heightAir tempDewpointWater temp
2017-Dec-16 01:28N 39°34' E 002°38'0 0.0
2017-Dec-16 00:58N 39°34' E 002°38'0 0.0
2017-Dec-16 00:28N 39°34' E 002°38'0 0.0
2017-Dec-15 23:58N 39°34' E 002°38'0 0.0
2017-Dec-15 23:28N 39°34' E 002°38'0 0.0
2017-Dec-15 22:58N 39°34' E 002°38'0 0.0
2017-Dec-15 22:28N 39°34' E 002°38'0 0.0
2017-Dec-15 21:58N 39°34' E 002°38'0 0.0
2017-Dec-15 21:28N 39°34' E 002°38'0 0.0
2017-Dec-15 20:58N 39°34' E 002°38'0 0.0
2017-Dec-15 20:28N 39°34' E 002°38'0 0.0
2017-Dec-15 19:55N 39°34' E 002°38'0 0.0
2017-Dec-15 19:28N 39°34' E 002°38'0 0.0
2017-Dec-15 18:58N 39°34' E 002°38'0 0.0
2017-Dec-15 18:28N 39°34' E 002°38'0 0.0
2017-Dec-15 17:58N 39°34' E 002°38'0 0.0
2017-Dec-15 17:28N 39°34' E 002°38'0 0.0
2017-Dec-15 16:58N 39°34' E 002°38'0 0.0
2017-Dec-15 16:28N 39°34' E 002°38'0 0.0
2017-Dec-15 15:58N 39°34' E 002°38'0 0.0
2017-Dec-15 15:25N 39°34' E 002°38'0 0.0
2017-Dec-15 14:58N 39°34' E 002°38'0 0.0
2017-Dec-15 14:28N 39°34' E 002°38'0 0.0
2017-Dec-15 14:00N 39°34' E 002°38'1 2.7
2017-Dec-15 13:30N 39°33' E 002°39'2 3.8
2017-Dec-15 13:00N 39°31' E 002°38'2 4.0
2017-Dec-15 12:30N 39°30' E 002°36'3 5.5
2017-Dec-15 12:00N 39°28' E 002°33'2 3.3
2017-Dec-15 11:30N 39°27' E 002°32'4 7.5
2017-Dec-15 11:00N 39°27' E 002°27'44 6.9
2017-Dec-15 04:38N 38°58' E 001°43'3 8.3
2017-Dec-15 04:18N 38°56' E 001°41'2 7.1
2017-Dec-15 04:00N 38°56' E 001°38'8 5.3
2017-Dec-15 02:30N 38°54' E 001°28'2 1.1
2017-Dec-15 00:59N 38°55' E 001°27'0 0.0
2017-Dec-15 00:23N 38°55' E 001°27'0 0.0
2017-Dec-14 17:11N 38°55' E 001°27'1 0.0
2017-Dec-13 23:54N 38°54' E 001°27'111 3.0
2017-Dec-12 10:32N 37°43' W 000°22'0 6.4
2017-Dec-12 10:27N 37°43' W 000°23'3 5.5
2017-Dec-12 09:57N 37°40' W 000°25'3 5.7
2017-Dec-12 09:26N 37°38' W 000°27'14 6.4
2017-Dec-12 07:15N 37°30' W 000°41'2 6.7
2017-Dec-12 06:59N 37°29' W 000°43'3 6.0
2017-Dec-12 06:30N 37°28' W 000°46'4 6.1
2017-Dec-12 05:53N 37°26' W 000°50'3 6.1
2017-Dec-12 05:27N 37°25' W 000°53'5 5.9
2017-Dec-12 04:37N 37°23' W 000°59'  

Dump ship's entire track history